Tiempo atmosférico en la estación meteorológica de Santibañez De Vidriales, Zamora (737 m.)



Fecha
DESCASC
Temp. máxima en grados centígrados (hora)
DESCASC
Temp. mínima en grados centígrados (hora)
DESCASC
Temp. media en grados centígrados
DESCASC
Racha de viento máxima en m/sg (hora)
DESCASC
Velocidad máxima media en intervalos de 10 minutos(hora)
DESCASC
Precipitaciones diarias en mm
DESCASC
Precipitaciones de 00:00 a 06:00 en mm
DESCASC
Precipitaciones de 06:00 a 12:00 en mm
DESCASC
Precipitaciones de 12:00 a 18:00 en mm
DESCASC
Precipitaciones de 18:00 a 24:00 en mm
DESCASC
18-08-2019 26.8 (18:20) 10.4 (06:10) 18.6 12.5 (14:30) 7.78 (14:40) 0 0 0 0 0
17-08-2019 33.2 (16:40) 9.4 (07:30) 21.3 11.11 (17:50) 7.5 (17:00) 0 0 0 0 0
16-08-2019 33.5 (17:00) 12.8 (07:50) 23.2 9.72 (18:10) 5.83 (17:40) 0 0 0 0 0
15-08-2019 31.1 (17:00) 11.3 (00:00) 21.2 7.78 (16:00) 4.72 (21:10) 0 0 0 0 0
14-08-2019 31.1 (16:20) 9.4 (00:00) 20.3 8.61 (20:30) 6.11 (20:30) 0 0 0 0 0
13-08-2019 27.2 (19:20) 6.1 (00:00) 16.7 11.39 (18:30) 3.89 (00:20) 0 0 0 0 0
12-08-2019 22.6 (16:40) 8.1 (00:00) 15.4 9.72 (14:10) 5 (10:30) 0 0 0 0 0
11-08-2019 25.1 (16:00) 11.3 (00:00) 18.2 12.22 (20:00) 8.06 (20:00) 0.6 0.6 0 0 0
10-08-2019 26.3 (16:40) 11.3 (00:00) 18.8 8.33 (18:30) 4.72 (17:50) 0 0 0 0 0
09-08-2019 23.9 (15:30) 16.1 (00:00) 20 14.17 (12:10) 8.33 (09:10) 1.4 0 1.4 0 0
08-08-2019 27.8 (18:10) 17.4 (00:00) 22.6 14.72 (18:20) 9.44 (18:30) 0.2 0 0.2 0 0
07-08-2019 24.7 (13:20) 15.7 (00:00) 20.2 11.67 (15:50) 8.33 (16:00) 1.4 0 0 0 1.4
06-08-2019 30 (16:20) 14.1 (00:00) 22.1 10 (17:10) 6.11 (18:00) 0 0 0 0 0
05-08-2019 32.2 (17:30) 12.4 (00:00) 22.3 8.89 (17:30) 5.83 (17:30) 0 0 0 0 0
04-08-2019 32 (18:00) 13.3 (00:00) 22.7 10.83 (17:20) 6.39 (19:00) 0 0 0 0 0
03-08-2019 33.6 (16:50) 13.9 (00:00) 23.7 9.17 (17:50) 5.28 (17:20) 0 0 0 0 0
02-08-2019 32 (19:00) 11.2 (00:00) 21.6 7.5 (17:50) 3.89 (01:40) 0 0 0 0 0
01-08-2019 30.8 (16:40) 11 (00:00) 20.9 9.17 (17:20) 5.28 (23:30) 0 0 0 0 0
31-07-2019 25.8 (20:00) 10.6 (00:00) 18.2 7.5 (00:10) 4.44 (00:10) 0 0 0 0 0
30-07-2019 24.9 (19:20) 9 (00:00) 16.9 8.61 (09:40) 5 (09:40) 0 0 0 0 0
29-07-2019 25.4 (15:20) 8.4 (00:00) 16.9 13.89 (15:00) 7.78 (15:00) 0 0 0 0 0
28-07-2019 27.7 (18:00) 8.2 (00:00) 18 9.17 (16:10) 4.72 (19:20) 0 0 0 0 0
27-07-2019 24 (18:20) 12.9 (00:00) 18.4 9.72 (17:10) 6.39 (20:20) 0 0 0 0 0
26-07-2019 27 (18:10) 13.3 (00:00) 20.2 8.33 (15:50) 5 (10:30) 0 0 0 0 0
25-07-2019 30.3 (15:20) 13.5 (00:00) 21.9 11.11 (14:40) 7.22 (15:10) 0 0 0 0 0
24-07-2019 33.3 (17:40) 15.6 (00:00) 24.4 11.11 (16:30) 6.67 (16:00) 0 0 0 0 0
23-07-2019 34 (16:50) 16.4 (00:00) 25.2 18.89 (18:30) 11.67 (18:30) 9.4 0 0 0 9.4
22-07-2019 35.9 (18:00) 17.3 (00:00) 26.6 18.89 (19:50) 12.22 (19:50) 2.4 0 0 0 2.4
21-07-2019 33.7 (19:20) 12.6 (00:00) 23.2 7.22 (00:50) 4.44 (00:50) 0 0 0 0 0

Gráficas

Temp. máximas Temp. mínimas Temp. medias Precipitaciones Rachas de viento máximas Velocidades máximas media en intervalos de 10 minutos

Datos horarios

Fecha y hora oficial Temperatura (ºC) Velocidad del viento (km/h) Dirección del viento Racha (km/h) Dirección de racha Precipitación (mm) Presión (hPa) Tendencia (hPa) Humedad (%)
2019-08-19 23:00:00 17.3 14 Este 35 Nordeste 0 -- -- 60
2019-08-19 22:00:00 19.3 15 Este 26 Este 0 -- -- 53
2019-08-19 21:00:00 20.8 22 Este 31 Este 0 -- -- 49
2019-08-19 20:00:00 23.5 5 Nordeste 28 Sudeste 0 -- -- 42
2019-08-19 19:00:00 24.3 3 Norte 12 Oeste 0 -- -- 36
2019-08-19 18:00:00 24 4 Sudoeste 16 Este 0 -- -- 38
2019-08-19 17:00:00 24.2 6 Este 18 Este 0 -- -- 38
2019-08-19 16:00:00 23.6 6 Sudoeste 18 Noroeste 0 -- -- 38
2019-08-19 15:00:00 22.6 8 Norte 18 Nordeste 0 -- -- 44
2019-08-19 14:00:00 20.8 11 Este 21 Nordeste 0 -- -- 50
2019-08-19 13:00:00 19.6 10 Nordeste 22 Norte 0 -- -- 54
2019-08-19 12:00:00 18.4 13 Nordeste 26 Este 0 -- -- 56
2019-08-19 11:00:00 17.1 11 Nordeste 18 Nordeste 0 -- -- 59
2019-08-19 10:00:00 15 8 Norte 14 Norte 0 -- -- 65
2019-08-19 09:00:00 12.8 5 Norte 14 Norte 0 -- -- 77
2019-08-19 08:00:00 12.2 9 Norte 15 Norte 0 -- -- 80
2019-08-19 07:00:00 12.3 5 Norte 10 Norte 0 -- -- 78
2019-08-19 06:00:00 12.7 6 Norte 14 Norte 0 -- -- 75
2019-08-19 05:00:00 12.7 5 Noroeste 12 Noroeste 0 -- -- 75
2019-08-19 04:00:00 12.4 6 Norte 9 Norte 0 -- -- 78
2019-08-19 03:00:00 13 2 Oeste 13 Nordeste 0 -- -- 74
2019-08-19 02:00:00 13.3 5 Norte 14 Norte 0 -- -- 74
2019-08-19 01:00:00 13.9 9 Norte 18 Nordeste 0 -- -- 73
2019-08-19 00:00:00 15.9 4 Noroeste 20 Noroeste 0 -- -- 64
2019-08-18 23:00:00 17.2 9 Norte 21 Norte 0 -- -- 62
2019-08-18 22:00:00 19.4 8 Norte 15 Oeste 0 -- -- 53
2019-08-18 21:00:00 23.7 13 Oeste 28 Oeste 0 -- -- 34
2019-08-18 20:00:00 25.7 17 Oeste 27 Oeste 0 -- -- 31
2019-08-18 19:00:00 26.3 19 Oeste 33 Oeste 0 -- -- 39
2019-08-18 18:00:00 25.2 6 Nordeste 21 Norte 0 -- -- 52
2019-08-18 17:00:00 22.7 18 Norte 29 Noroeste 0 -- -- 60
2019-08-18 16:00:00 24.2 10 Oeste 28 Sudoeste 0 -- -- 56
2019-08-18 15:00:00 22.5 19 Oeste 45 Oeste 0 -- -- 63
2019-08-18 14:00:00 25.5 17 Sudoeste 32 Oeste 0 -- -- 51
2019-08-18 13:00:00 24.4 13 Sudoeste 22 Sudoeste 0 -- -- 53
2019-08-18 12:00:00 22.1 10 Sudoeste 18 Sudoeste 0 -- -- 57
2019-08-18 11:00:00 18.5 8 Sudoeste 16 Sur 0 -- -- 67
2019-08-18 10:00:00 16.3 5 Sudoeste 8 Sudoeste 0 -- -- 75
2019-08-18 09:00:00 13.8 2 Oeste 6 Noroeste 0 -- -- 77
2019-08-18 08:00:00 11.7 0 Calma 8 Este 0 -- -- 79
2019-08-18 07:00:00 10.9 5 Noroeste 6 Noroeste 0 -- -- 84
2019-08-18 06:00:00 10.6 0 Calma 5 Noroeste 0 -- -- 81
2019-08-18 05:00:00 11 0 Calma 9 Noroeste 0 -- -- 79
2019-08-18 04:00:00 12.6 3 Norte 7 Noroeste 0 -- -- 76
2019-08-18 03:00:00 14 3 Norte 8 Noroeste 0 -- -- 73
2019-08-18 02:00:00 16.2 3 Norte 11 Oeste 0 -- -- 64
2019-08-18 01:00:00 19.9 9 Oeste 13 Oeste 0 -- -- 56
2019-08-18 00:00:00 19.9 6 Oeste 10 Oeste 0 -- -- 52
2019-08-17 23:00:00 22.3 4 Noroeste 13 Oeste 0 -- -- 43
2019-08-17 22:00:00 25.4 8 Oeste 17 Oeste 0 -- -- 34
2019-08-17 21:00:00 28.7 14 Oeste 28 Oeste 0 -- -- 31
2019-08-17 20:00:00 30.6 18 Sudoeste 37 Oeste 0 -- -- 25
2019-08-17 19:00:00 31.5 22 Oeste 38 Oeste 0 -- -- 23
2019-08-17 18:00:00 32.5 22 Sudoeste 40 Sudoeste 0 -- -- 23
2019-08-17 17:00:00 32.7 27 Sudoeste 39 Sudoeste 0 -- -- 22
2019-08-17 16:00:00 32.8 19 Sudoeste 34 Sudoeste 0 -- -- 23
2019-08-17 15:00:00 31.8 13 Sudoeste 30 Sur 0 -- -- 26
2019-08-17 14:00:00 29.7 9 Sudoeste 23 Sur 0 -- -- 30
2019-08-17 13:00:00 27.6 7 Sudeste 17 Este 0 -- -- 33
2019-08-17 12:00:00 25.4 6 Este 15 Sudeste 0 -- -- 38
2019-08-17 11:00:00 22.7 5 Sudeste 10 Sudeste 0 -- -- 49
2019-08-17 10:00:00 18.7 2 Noroeste 5 Sur 0 -- -- 58
2019-08-17 09:00:00 13.9 0 Calma 6 Noroeste 0 -- -- 73
2019-08-17 08:00:00 9.5 3 Noroeste 6 Noroeste 0 -- -- 83
2019-08-17 07:00:00 9.8 0 Calma 6 Noroeste 0 -- -- 83
2019-08-17 06:00:00 10.2 3 Noroeste 6 Norte 0 -- -- 79
2019-08-17 05:00:00 10.7 3 Noroeste 6 Noroeste 0 -- -- 79
2019-08-17 04:00:00 12.5 4 Noroeste 7 Sudoeste 0 -- -- 71
2019-08-17 03:00:00 13.9 0 Calma 8 Sudoeste 0 -- -- 66
2019-08-17 02:00:00 15.4 7 Noroeste 10 Noroeste 0 -- -- 61
2019-08-17 01:00:00 17.4 0 Calma 12 Nordeste 0 -- -- 52
2019-08-17 00:00:00 19.5 5 Noroeste 13 Noroeste 0 -- -- 45
2019-08-16 23:00:00 21.3 11 Noroeste 13 Noroeste 0 -- -- 39
2019-08-16 22:00:00 25 9 Oeste 20 Noroeste 0 -- -- 30
2019-08-16 21:00:00 28.5 14 Noroeste 30 Oeste 0 -- -- 27
2019-08-16 20:00:00 31.7 20 Oeste 35 Sudoeste 0 -- -- 24
2019-08-16 19:00:00 32.7 20 Sudoeste 35 Sudoeste 0 -- -- 23
2019-08-16 18:00:00 33.1 21 Sudoeste 35 Sudoeste 0 -- -- 24
2019-08-16 17:00:00 33.5 17 Sudoeste 29 Sudoeste 0 -- -- 23
2019-08-16 16:00:00 32.5 13 Sudoeste 33 Sur 0 -- -- 20
2019-08-16 15:00:00 30.9 9 Sudoeste 22 Sudoeste 0 -- -- 25
2019-08-16 14:00:00 29.2 8 Sudoeste 20 Sudoeste 0 -- -- 31
2019-08-16 13:00:00 27.1 8 Este 14 Sudeste 0 -- -- 38
2019-08-16 12:00:00 24.7 6 Sudoeste 12 Sudoeste 0 -- -- 45
2019-08-16 11:00:00 21.9 4 Oeste 8 Oeste 0 -- -- 55
2019-08-16 10:00:00 19.3 3 Nordeste 6 Nordeste 0 -- -- 62
2019-08-16 09:00:00 15.7 0 Calma 5 Oeste 0 -- -- 73
2019-08-16 08:00:00 12.8 0 Calma 8 Oeste 0 -- -- 81
2019-08-16 07:00:00 13.3 2 Oeste 10 Noroeste 0 -- -- 80
2019-08-16 06:00:00 13 8 Noroeste 14 Noroeste 0 -- -- 84
2019-08-16 05:00:00 13.6 8 Noroeste 11 Noroeste 0 -- -- 81
2019-08-16 04:00:00 14.6 5 Noroeste 9 Noroeste 0 -- -- 76
2019-08-16 03:00:00 17.4 0 Calma 13 Este 0 -- -- 66
2019-08-16 02:00:00 19 8 Este 13 Este 0 -- -- 62
2019-08-16 01:00:00 20.9 6 Este 17 Este 0 -- -- 56
2019-08-16 00:00:00 22.6 7 Nordeste 25 Norte 0 -- -- 51
2019-08-15 23:00:00 23.2 11 Norte 25 Norte 0 -- -- 49
2019-08-15 22:00:00 24.6 12 Norte 27 Norte 0 -- -- 45
2019-08-15 21:00:00 28.1 13 Norte 23 Norte 0 -- -- 36
2019-08-15 20:00:00 28.6 13 Nordeste 23 Norte 0 -- -- 36
2019-08-15 19:00:00 29.8 14 Norte 23 Norte 0 -- -- 32
2019-08-15 18:00:00 30.6 5 Este 23 Sur 0 -- -- 30
2019-08-15 17:00:00 31.1 8 Sudoeste 25 Sudoeste 0 -- -- 29
2019-08-15 16:00:00 30.8 15 Sudoeste 28 Sur 0 -- -- 30
2019-08-15 15:00:00 29 10 Sur 19 Sudoeste 0 -- -- 33
2019-08-15 14:00:00 27.2 6 Este 15 Sudoeste 0 -- -- 34
2019-08-15 13:00:00 25.3 6 Este 15 Este 0 -- -- 38
2019-08-15 12:00:00 23 4 Sur 13 Este 0 -- -- 43
2019-08-15 11:00:00 20.6 5 Este 10 Este 0 -- -- 50
2019-08-15 10:00:00 18.2 3 Sudeste 9 Sudeste 0 -- -- 68
2019-08-15 09:00:00 14.9 0 Calma 3 Norte 0 -- -- 81
2019-08-15 08:00:00 11.4 3 Noroeste 4 Oeste 0 -- -- 87
2019-08-15 07:00:00 12.4 0 Calma 9 Oeste 0 -- -- 85
2019-08-15 06:00:00 13.6 7 Noroeste 9 Norte 0 -- -- 85
2019-08-15 05:00:00 14.5 5 Oeste 7 Oeste 0 -- -- 82
2019-08-15 04:00:00 16.7 0 Calma 7 Norte 0 -- -- 72
2019-08-15 03:00:00 16.5 6 Norte 9 Nordeste 0 -- -- 73
2019-08-15 02:00:00 17.8 9 Norte 16 Norte 0 -- -- 68
2019-08-15 01:00:00 19.3 3 Este 14 Norte 0 -- -- 63
2019-08-15 00:00:00 21 7 Noroeste 16 Noroeste 0 -- -- 57
2019-08-14 23:00:00 22 3 Sudoeste 17 Noroeste 0 -- -- 55
2019-08-14 22:00:00 23.6 9 Norte 21 Norte 0 -- -- 53
2019-08-14 21:00:00 26.5 14 Norte 31 Noroeste 0 -- -- 46
2019-08-14 20:00:00 28.5 14 Norte 27 Norte 0 -- -- 38
2019-08-14 19:00:00 28.9 15 Norte 22 Norte 0 -- -- 37
2019-08-14 18:00:00 29.5 10 Norte 23 Nordeste 0 -- -- 34
2019-08-14 17:00:00 30.3 7 Noroeste 21 Sur 0 -- -- 30
2019-08-14 16:00:00 30.4 12 Sudoeste 24 Sur 0 -- -- 29
2019-08-14 15:00:00 29.4 7 Sur 19 Oeste 0 -- -- 29
2019-08-14 14:00:00 27.9 12 Sudoeste 21 Sudoeste 0 -- -- 30
2019-08-14 13:00:00 25.7 6 Oeste 15 Oeste 0 -- -- 32
2019-08-14 12:00:00 23.6 5 Este 14 Sudeste 0 -- -- 38
2019-08-14 11:00:00 20.7 4 Sudeste 10 Este 0 -- -- 45
2019-08-14 10:00:00 17.9 3 Sudeste 7 Sudeste 0 -- -- 53
2019-08-14 09:00:00 13.6 4 Noroeste 6 Noroeste 0 -- -- 63
2019-08-14 08:00:00 10.4 4 Noroeste 8 Noroeste 0 -- -- 70
2019-08-14 07:00:00 10.1 3 Oeste 5 Oeste 0 -- -- 69
2019-08-14 06:00:00 10.2 0 Calma 7 Noroeste 0 -- -- 67
2019-08-14 05:00:00 10.5 5 Noroeste 8 Noroeste 0 -- -- 65
2019-08-14 04:00:00 12 5 Oeste 8 Oeste 0 -- -- 58
2019-08-14 03:00:00 12.6 2 Oeste 10 Sudoeste 0 -- -- 57
2019-08-14 02:00:00 14 2 Nordeste 6 Sudoeste 0 -- -- 53
2019-08-14 01:00:00 15.7 3 Sudoeste 8 Norte 0 -- -- 48
2019-08-14 00:00:00 17.9 6 Norte 22 Noroeste 0 -- -- 43
2019-08-13 23:00:00 18.8 12 Noroeste 21 Noroeste 0 -- -- 44
2019-08-13 22:00:00 21.6 5 Sudoeste 12 Noroeste 0 -- -- 34
2019-08-13 21:00:00 25.1 6 Sur 16 Sudoeste 0 -- -- 27
2019-08-13 20:00:00 26.8 12 Sudoeste 20 Sur 0 -- -- 24
2019-08-13 19:00:00 26.9 7 Oeste 41 Sur 0 -- -- 25
2019-08-13 18:00:00 26.2 6 Sudeste 18 Este 0 -- -- 25
2019-08-13 17:00:00 25.6 5 Sudoeste 19 Sur 0 -- -- 26
2019-08-13 16:00:00 24.3 9 Sur 19 Norte 0 -- -- 25
2019-08-13 15:00:00 22.7 8 Sur 18 Este 0 -- -- 34
2019-08-13 14:00:00 21.4 8 Sudeste 15 Este 0 -- -- 37
2019-08-13 13:00:00 19.8 6 Sudoeste 22 Sudeste 0 -- -- 44
2019-08-13 12:00:00 18.1 5 Este 18 Sudeste 0 -- -- 49
2019-08-13 11:00:00 16.5 6 Sudeste 17 Este 0 -- -- 54
2019-08-13 10:00:00 14.3 9 Nordeste 14 Nordeste 0 -- -- 62
2019-08-13 09:00:00 10.6 3 Noroeste 9 Noroeste 0 -- -- 81
2019-08-13 08:00:00 7 6 Noroeste 10 Noroeste 0 -- -- 90
2019-08-13 07:00:00 6.4 3 Noroeste 5 Noroeste 0 -- -- 88
2019-08-13 06:00:00 7.1 3 Noroeste 8 Noroeste 0 -- -- 86
2019-08-13 05:00:00 8.6 3 Noroeste 6 Noroeste 0 -- -- 81
2019-08-13 04:00:00 9 3 Noroeste 8 Noroeste 0 -- -- 79
2019-08-13 03:00:00 12 3 Nordeste 15 Este 0 -- -- 68
2019-08-13 02:00:00 13.8 13 Este 21 Este 0 -- -- 62
2019-08-13 01:00:00 14.5 8 Este 22 Nordeste 0 -- -- 58
2019-08-13 00:00:00 15.8 15 Este 29 Este 0 -- -- 56
2019-08-12 23:00:00 17.1 13 Nordeste 23 Este 0 -- -- 48
2019-08-12 22:00:00 18.4 11 Nordeste 18 Nordeste 0 -- -- 43
2019-08-12 21:00:00 20 6 Nordeste 18 Este 0 -- -- 32
2019-08-12 20:00:00 20.9 8 Este 19 Este 0 -- -- 32
2019-08-12 19:00:00 20.8 10 Este 25 Este 0 -- -- 31
2019-08-12 18:00:00 22.3 15 Este 28 Este 0 -- -- 30
2019-08-12 17:00:00 22.2 10 Nordeste 27 Este 0 -- -- 28
2019-08-12 16:00:00 22 12 Nordeste 32 Este 0 -- -- 30
2019-08-12 15:00:00 21.1 11 Nordeste 35 Nordeste 0 -- -- 28
2019-08-12 14:00:00 20.2 10 Nordeste 28 Este 0 -- -- 31
2019-08-12 13:00:00 19.2 13 Norte 26 Nordeste 0 -- -- 33
2019-08-12 12:00:00 18.2 13 Norte 25 Nordeste 0 -- -- 36
2019-08-12 11:00:00 16.5 14 Norte 29 Norte 0 -- -- 44
2019-08-12 10:00:00 15.1 15 Norte 26 Noroeste 0 -- -- 50
2019-08-12 09:00:00 12.5 13 Noroeste 20 Noroeste 0 -- -- 61
2019-08-12 08:00:00 9.4 5 Noroeste 19 Oeste 0 -- -- 74
2019-08-12 07:00:00 9.2 9 Noroeste 16 Noroeste 0 -- -- 75
2019-08-12 06:00:00 8.5 6 Noroeste 13 Noroeste 0 -- -- 77
2019-08-12 05:00:00 10.1 7 Noroeste 16 Oeste 0 -- -- 71
2019-08-12 04:00:00 8.8 4 Norte 9 Noroeste 0 -- -- 74
2019-08-12 03:00:00 9.5 5 Noroeste 19 Norte 0 -- -- 72
2019-08-12 02:00:00 10.5 5 Norte 10 Noroeste 0 -- -- 69
2019-08-12 01:00:00 11.3 5 Norte 14 Norte 0 -- -- 66
2019-08-12 00:00:00 12.5 8 Norte 14 Norte 0 -- -- 62
2019-08-11 23:00:00 13.4 8 Norte 12 Norte 0 -- -- 57
2019-08-11 22:00:00 14.8 5 Norte 24 Noroeste 0 -- -- 55
2019-08-11 21:00:00 16.7 16 Noroeste 34 Noroeste 0 -- -- 48
2019-08-11 20:00:00 18.3 29 Noroeste 44 Noroeste 0 -- -- 45
2019-08-11 19:00:00 22.6 21 Oeste 34 Oeste 0 -- -- 30
2019-08-11 18:00:00 23.4 16 Noroeste 34 Oeste 0 -- -- 27
2019-08-11 17:00:00 22.7 13 Nordeste 23 Nordeste 0 -- -- 33
2019-08-11 16:00:00 25.1 15 Sudoeste 31 Sudoeste 0 -- -- 22
2019-08-11 15:00:00 23.1 7 Sudoeste 23 Sudoeste 0 -- -- 29
2019-08-11 14:00:00 21.8 10 Sudoeste 26 Oeste 0 -- -- 38
2019-08-11 13:00:00 20.5 6 Este 14 Sudoeste 0 -- -- 49
2019-08-11 12:00:00 18.1 7 Sur 14 Sur 0 -- -- 65
2019-08-11 11:00:00 15.3 5 Sudoeste 8 Sur 0 -- -- 82
2019-08-11 10:00:00 14.4 2 Sudeste 5 Norte 0 -- -- 87
2019-08-11 09:00:00 12.6 2 Nordeste 4 Noroeste 0 -- -- 92
2019-08-11 08:00:00 11.6 3 Oeste 9 Noroeste 0 -- -- 93
2019-08-11 07:00:00 12.2 4 Noroeste 10 Noroeste 0 -- -- 91
2019-08-11 06:00:00 13.5 4 Oeste 8 Sur 0 -- -- 90
2019-08-11 05:00:00 14.1 5 Este 19 Este 0 -- -- 88
2019-08-11 04:00:00 14.7 10 Sudeste 15 Sudeste 0.6 -- -- 84
2019-08-11 03:00:00 16.4 8 Sudeste 14 Nordeste 0 -- -- 68
2019-08-11 02:00:00 16.9 8 Norte 13 Norte 0 -- -- 57
2019-08-11 01:00:00 17.2 4 Noroeste 11 Norte 0 -- -- 55
2019-08-11 00:00:00 17.4 0 Calma 13 Norte 0 -- -- 55
2019-08-10 23:00:00 17.9 7 Norte 11 Norte 0 -- -- 54
2019-08-10 22:00:00 19.2 4 Noroeste 19 Sudoeste 0 -- -- 48
2019-08-10 21:00:00 21.3 14 Sudoeste 27 Sudoeste 0 -- -- 42
2019-08-10 20:00:00 23.2 14 Sudoeste 28 Sudoeste 0 -- -- 34
2019-08-10 19:00:00 24.5 14 Sudoeste 30 Sudoeste 0 -- -- 25
2019-08-10 18:00:00 25.8 15 Sudoeste 28 Sudoeste 0 -- -- 24
2019-08-10 17:00:00 26 13 Oeste 26 Sudoeste 0 -- -- 22
2019-08-10 16:00:00 26 12 Sudoeste 27 Sur 0 -- -- 24
2019-08-10 15:00:00 24.6 7 Este 24 Sur 0 -- -- 30
2019-08-10 14:00:00 23.1 9 Sur 24 Sudeste 0 -- -- 35
2019-08-10 13:00:00 21.6 8 Este 23 Sur 0 -- -- 40
2019-08-10 12:00:00 20 10 Sudeste 20 Este 0 -- -- 47
2019-08-10 11:00:00 18.7 6 Este 14 Este 0 -- -- 53
2019-08-10 10:00:00 16.9 6 Este 11 Este 0 -- -- 62
2019-08-10 09:00:00 13.6 2 Norte 8 Norte 0 -- -- 80
2019-08-10 08:00:00 11.7 0 Calma 4 Sudeste 0 -- -- 85
2019-08-10 07:00:00 12.9 4 Noroeste 6 Norte 0 -- -- 79
2019-08-10 06:00:00 14.5 3 Noroeste 13 Sudoeste 0 -- -- 75
2019-08-10 05:00:00 14.9 10 Sudoeste 15 Sudoeste 0 -- -- 72
2019-08-10 04:00:00 15.4 8 Oeste 14 Oeste 0 -- -- 69
2019-08-10 03:00:00 15.6 5 Oeste 13 Sudoeste 0 -- -- 69
2019-08-10 02:00:00 16 9 Oeste 18 Sudoeste 0 -- -- 66
2019-08-10 01:00:00 16.4 6 Oeste 14 Sudoeste 0 -- -- 63
2019-08-10 00:00:00 16.6 6 Oeste 15 Sudoeste 0 -- -- 61
2019-08-09 23:00:00 17.2 8 Oeste 20 Oeste 0 -- -- 58
2019-08-09 22:00:00 18.1 15 Oeste 29 Oeste 0 -- -- 55
2019-08-09 21:00:00 19.7 15 Oeste 36 Sudoeste 0 -- -- 53
2019-08-09 20:00:00 21.4 21 Oeste 40 Oeste 0 -- -- 43
2019-08-09 19:00:00 22.6 27 Oeste 47 Oeste 0 -- -- 41
2019-08-09 18:00:00 23.1 24 Oeste 51 Sudoeste 0 -- -- 41
2019-08-09 17:00:00 23.4 30 Oeste 45 Sudoeste 0 -- -- 36
2019-08-09 16:00:00 23.3 24 Oeste 47 Oeste 0 -- -- 40
2019-08-09 15:00:00 23.5 29 Sudoeste 48 Sudoeste 0 -- -- 42
2019-08-09 14:00:00 22.2 25 Sudoeste 44 Sudoeste 0 -- -- 48
2019-08-09 13:00:00 21.8 27 Sudoeste 51 Sudoeste 0 -- -- 47
2019-08-09 12:00:00 20.1 29 Sudoeste 47 Oeste 0.2 -- -- 55
2019-08-09 11:00:00 17.5 19 Sudoeste 43 Sudoeste 0 -- -- 69
2019-08-09 10:00:00 17.5 24 Sudoeste 48 Sudoeste 0 -- -- 76
2019-08-09 09:00:00 16.2 28 Sudoeste 45 Sudoeste 0 -- -- 85
2019-08-09 08:00:00 16.7 14 Oeste 35 Sudoeste 0 -- -- 89
2019-08-09 07:00:00 18.1 19 Oeste 32 Sudoeste 1.2 -- -- 91
2019-08-09 06:00:00 19 18 Sur 30 Sur 0 -- -- 90
2019-08-09 05:00:00 19.1 16 Sur 27 Sudoeste 0 -- -- 90
2019-08-09 04:00:00 20.3 13 Sur 32 Sur 0 -- -- 80
2019-08-09 03:00:00 21.4 17 Sudoeste 29 Sudoeste 0 -- -- 73
2019-08-09 02:00:00 21.2 17 Sudoeste 26 Sudoeste 0 -- -- 73
2019-08-09 01:00:00 21.6 13 Sudoeste 27 Sudoeste 0 -- -- 69
2019-08-09 00:00:00 22.3 19 Sudoeste 32 Sudoeste 0 -- -- 66
2019-08-08 23:00:00 22.2 8 Sudoeste 14 Sudoeste 0 -- -- 64
2019-08-08 22:00:00 22.9 9 Sudoeste 31 Oeste 0 -- -- 61
2019-08-08 21:00:00 24.6 14 Sudoeste 38 Oeste 0 -- -- 55
2019-08-08 20:00:00 25.8 21 Sudoeste 43 Sudoeste 0 -- -- 56
2019-08-08 19:00:00 26.9 24 Sudoeste 53 Sudoeste 0 -- -- 53
2019-08-08 18:00:00 27.1 27 Sudoeste 46 Sudoeste 0 -- -- 53
2019-08-08 17:00:00 26.7 28 Sudoeste 42 Sudoeste 0 -- -- 54
2019-08-08 16:00:00 25.7 21 Sudoeste 36 Sudoeste 0 -- -- 59
2019-08-08 15:00:00 24.4 20 Sudoeste 33 Sudoeste 0 -- -- 66
2019-08-08 14:00:00 23 21 Sudoeste 32 Sudoeste 0 -- -- 72
2019-08-08 13:00:00 22 21 Sudoeste 33 Sudoeste 0 -- -- 76
2019-08-08 12:00:00 20.5 9 Sur 19 Sur 0 -- -- 83
2019-08-08 11:00:00 19.1 12 Sudoeste 18 Sur 0 -- -- 88
2019-08-08 10:00:00 18.2 7 Sur 16 Sur 0.2 -- -- 92
2019-08-08 09:00:00 17.8 12 Sur 17 Sur 0 -- -- 90
2019-08-08 08:00:00 17.4 7 Sur 12 Sur 0 -- -- 91
2019-08-08 07:00:00 17.8 6 Sudeste 10 Sudeste 0 -- -- 88
2019-08-08 06:00:00 17.6 4 Este 8 Sur 0 -- -- 89
2019-08-08 05:00:00 17.8 4 Sudeste 7 Sur 0 -- -- 87
2019-08-08 04:00:00 17.9 3 Sur 26 Sudoeste 0 -- -- 85
2019-08-08 03:00:00 17.8 12 Sudoeste 24 Sudoeste 0 -- -- 86
2019-08-08 02:00:00 17.8 2 Sudeste 9 Oeste 0 -- -- 89
2019-08-08 01:00:00 17.7 4 Sudoeste 8 Sudoeste 0 -- -- 88
2019-08-08 00:00:00 17.5 2 Sudoeste 8 Sudoeste 0 -- -- 88
2019-08-07 23:00:00 17.6 3 Sur 9 Oeste 0 -- -- 89
2019-08-07 22:00:00 17.9 4 Oeste 12 Sudoeste 0 -- -- 87
2019-08-07 21:00:00 18.5 7 Sudoeste 15 Sudoeste 0 -- -- 86
2019-08-07 20:00:00 18.3 10 Sudoeste 19 Oeste 0.4 -- -- 88
2019-08-07 19:00:00 18.1 9 Sudoeste 29 Sudoeste 1 -- -- 88
2019-08-07 18:00:00 20.3 18 Oeste 41 Sudoeste 0 -- -- 68
2019-08-07 17:00:00 22.2 22 Sudoeste 41 Sudoeste 0 -- -- 55
2019-08-07 16:00:00 22.9 30 Sudoeste 42 Sudoeste 0 -- -- 52
2019-08-07 15:00:00 23.4 26 Sudoeste 39 Sudoeste 0 -- -- 49
2019-08-07 14:00:00 22.8 18 Sudoeste 33 Sudoeste 0 -- -- 50
2019-08-07 13:00:00 24.6 14 Sudoeste 27 Oeste 0 -- -- 40
2019-08-07 12:00:00 22.8 11 Sur 22 Sur 0 -- -- 46
2019-08-07 11:00:00 21.4 8 Sur 14 Sudeste 0 -- -- 54
2019-08-07 10:00:00 19.4 2 Sur 6 Sur 0 -- -- 61
2019-08-07 09:00:00 17.6 3 Este 6 Sudeste 0 -- -- 74
2019-08-07 08:00:00 15.7 2 Oeste 6 Noroeste 0 -- -- 79
2019-08-07 07:00:00 16.1 0 Calma 4 Noroeste 0 -- -- 80
2019-08-07 06:00:00 16.1 2 Noroeste 5 Sudoeste 0 -- -- 79
2019-08-07 05:00:00 16.5 3 Noroeste 4 Noroeste 0 -- -- 78
2019-08-07 04:00:00 17.7 2 Norte 4 Oeste 0 -- -- 73
2019-08-07 03:00:00 18.8 5 Oeste 6 Oeste 0 -- -- 64
2019-08-07 02:00:00 19.2 0 Calma 5 Sur 0 -- -- 65
2019-08-07 01:00:00 19.9 0 Calma 7 Este 0 -- -- 61
2019-08-07 00:00:00 20.4 6 Este 11 Este 0 -- -- 60
2019-08-06 23:00:00 21 5 Norte 20 Norte 0 -- -- 58
2019-08-06 22:00:00 22.3 10 Norte 17 Norte 0 -- -- 54
2019-08-06 21:00:00 23.4 13 Noroeste 22 Noroeste 0 -- -- 49
2019-08-06 20:00:00 25.7 14 Oeste 34 Oeste 0 -- -- 32
2019-08-06 19:00:00 26.9 19 Sudoeste 33 Sudoeste 0 -- -- 29
2019-08-06 18:00:00 28.2 22 Sudoeste 36 Oeste 0 -- -- 30
2019-08-06 17:00:00 28.7 18 Oeste 32 Sudoeste 0 -- -- 29
2019-08-06 16:00:00 29.6 17 Sudoeste 29 Sudoeste 0 -- -- 26
2019-08-06 15:00:00 29.3 15 Sudoeste 26 Sudoeste 0 -- -- 31
2019-08-06 14:00:00 27.2 5 Sudoeste 15 Sudoeste 0 -- -- 41
2019-08-06 13:00:00 25.2 8 Sudoeste 14 Sudoeste 0 -- -- 44
2019-08-06 12:00:00 24 4 Este 10 Sudeste 0 -- -- 49
2019-08-06 11:00:00 21.2 4 Sudeste 9 Este 0 -- -- 55
2019-08-06 10:00:00 19.1 3 Sur 6 Oeste 0 -- -- 71
2019-08-06 09:00:00 15.4 2 Sudoeste 5 Oeste 0 -- -- 81
2019-08-06 08:00:00 14.4 3 Noroeste 11 Noroeste 0 -- -- 86
2019-08-06 07:00:00 14.5 6 Noroeste 6 Noroeste 0 -- -- 83
2019-08-06 06:00:00 14.7 3 Oeste 6 Oeste 0 -- -- 81
2019-08-06 05:00:00 15.4 0 Calma 10 Noroeste 0 -- -- 80
2019-08-06 04:00:00 16.2 7 Oeste 10 Oeste 0 -- -- 73
2019-08-06 03:00:00 17 4 Sudoeste 8 Noroeste 0 -- -- 68
2019-08-06 02:00:00 17.8 2 Este 5 Sudoeste 0 -- -- 64
2019-08-06 01:00:00 19.9 0 Calma 7 Norte 0 -- -- 57
2019-08-06 00:00:00 21.7 6 Norte 10 Norte 0 -- -- 54
2019-08-05 23:00:00 24.1 9 Norte 13 Noroeste 0 -- -- 45
2019-08-05 22:00:00 26.7 9 Oeste 22 Sudoeste 0 -- -- 38
2019-08-05 21:00:00 29.3 16 Sudoeste 30 Sudoeste 0 -- -- 32
2019-08-05 20:00:00 31 18 Sudoeste 29 Sudoeste 0 -- -- 28
2019-08-05 19:00:00 31.9 17 Sudoeste 28 Sudoeste 0 -- -- 24
2019-08-05 18:00:00 32.1 14 Sudoeste 32 Sudoeste 0 -- -- 23
2019-08-05 17:00:00 32 12 Sudoeste 23 Sur 0 -- -- 25
2019-08-05 16:00:00 31.2 14 Sudoeste 28 Oeste 0 -- -- 26
2019-08-05 15:00:00 30.1 7 Este 25 Sudoeste 0 -- -- 31
2019-08-05 14:00:00 28 8 Sudoeste 23 Sudoeste 0 -- -- 38
2019-08-05 13:00:00 26.4 9 Sudoeste 21 Sudoeste 0 -- -- 42
2019-08-05 12:00:00 24.3 5 Sur 10 Sudeste 0 -- -- 50
2019-08-05 11:00:00 22.3 5 Sur 12 Sur 0 -- -- 58
2019-08-05 10:00:00 20.4 3 Este 8 Noroeste 0 -- -- 64
2019-08-05 09:00:00 16.6 5 Noroeste 10 Noroeste 0 -- -- 77
2019-08-05 08:00:00 12.6 4 Noroeste 6 Noroeste 0 -- -- 87
2019-08-05 07:00:00 13 3 Noroeste 5 Noroeste 0 -- -- 82
2019-08-05 06:00:00 14.1 3 Noroeste 5 Noroeste 0 -- -- 80
2019-08-05 05:00:00 14.3 4 Noroeste 6 Noroeste 0 -- -- 77
2019-08-05 04:00:00 15.9 0 Calma 9 Noroeste 0 -- -- 70
2019-08-05 03:00:00 17.2 4 Noroeste 6 Nordeste 0 -- -- 66
2019-08-05 02:00:00 17.7 0 Calma 7 Sur 0 -- -- 62
2019-08-05 01:00:00 19.5 0 Calma 18 Noroeste 0 -- -- 56
2019-08-05 00:00:00 21.1 11 Noroeste 26 Noroeste 0 -- -- 53
2019-08-04 23:00:00 22.6 10 Noroeste 14 Noroeste 0 -- -- 48
2019-08-04 22:00:00 25.1 10 Oeste 21 Oeste 0 -- -- 41
2019-08-04 21:00:00 28.3 14 Oeste 36 Sudoeste 0 -- -- 29
2019-08-04 20:00:00 30.1 19 Sudoeste 37 Sudoeste 0 -- -- 26
2019-08-04 19:00:00 31.1 23 Sudoeste 34 Sudoeste 0 -- -- 24
2019-08-04 18:00:00 32 17 Sudoeste 39 Oeste 0 -- -- 22
2019-08-04 17:00:00 31.8 13 Sudoeste 33 Sudoeste 0 -- -- 26
2019-08-04 16:00:00 31.7 18 Sudoeste 38 Oeste 0 -- -- 22
2019-08-04 15:00:00 31.4 16 Oeste 32 Sudoeste 0 -- -- 23
2019-08-04 14:00:00 30.1 18 Sudoeste 32 Sudoeste 0 -- -- 29
2019-08-04 13:00:00 28.1 8 Sur 23 Sudoeste 0 -- -- 41
2019-08-04 12:00:00 26 9 Sur 18 Sur 0 -- -- 45
2019-08-04 11:00:00 23.6 5 Sudeste 12 Este 0 -- -- 52
2019-08-04 10:00:00 20.3 3 Sur 7 Este 0 -- -- 60
2019-08-04 09:00:00 16.6 3 Sudeste 4 Sudeste 0 -- -- 70
2019-08-04 08:00:00 13.6 2 Sur 3 Sur 0 -- -- 77
2019-08-04 07:00:00 13.5 0 Calma 4 Sudoeste 0 -- -- 77
2019-08-04 06:00:00 14.3 4 Sudoeste 8 Noroeste 0 -- -- 75
2019-08-04 05:00:00 16.5 4 Oeste 12 Noroeste 0 -- -- 77
2019-08-04 04:00:00 17 7 Oeste 10 Noroeste 0 -- -- 72
2019-08-04 03:00:00 17.9 5 Oeste 8 Noroeste 0 -- -- 67
2019-08-04 02:00:00 19.1 6 Norte 10 Norte 0 -- -- 63
2019-08-04 01:00:00 18.1 0 Calma 10 Norte 0 -- -- 59
2019-08-04 00:00:00 21.2 0 Calma 8 Sudoeste 0 -- -- 49
2019-08-03 23:00:00 22.9 5 Noroeste 16 Norte 0 -- -- 43
2019-08-03 22:00:00 25.9 12 Noroeste 19 Noroeste 0 -- -- 36
2019-08-03 21:00:00 30.1 13 Oeste 26 Oeste 0 -- -- 26
2019-08-03 20:00:00 31.7 15 Sudoeste 28 Sudoeste 0 -- -- 22
2019-08-03 19:00:00 32.8 18 Sudoeste 29 Sudoeste 0 -- -- 22
2019-08-03 18:00:00 33.3 14 Sudoeste 33 Sudoeste 0 -- -- 23
2019-08-03 17:00:00 33.2 18 Sudoeste 32 Oeste 0 -- -- 22
2019-08-03 16:00:00 33.3 10 Sudoeste 25 Oeste 0 -- -- 23
2019-08-03 15:00:00 32.3 12 Oeste 27 Sur 0 -- -- 23
2019-08-03 14:00:00 31.2 6 Sudoeste 16 Sudoeste 0 -- -- 26
2019-08-03 13:00:00 29.2 5 Oeste 13 Este 0 -- -- 30
2019-08-03 12:00:00 26.8 5 Nordeste 15 Nordeste 0 -- -- 35
2019-08-03 11:00:00 24.8 5 Nordeste 14 Nordeste 0 -- -- 39
2019-08-03 10:00:00 22 3 Norte 7 Norte 0 -- -- 50
2019-08-03 09:00:00 18.1 3 Oeste 8 Oeste 0 -- -- 67
2019-08-03 08:00:00 15 6 Oeste 10 Oeste 0 -- -- 75
2019-08-03 07:00:00 14.3 3 Sur 7 Sudoeste 0 -- -- 75
2019-08-03 06:00:00 15.7 0 Calma 9 Noroeste 0 -- -- 72
2019-08-03 05:00:00 16.4 7 Noroeste 9 Noroeste 0 -- -- 69
2019-08-03 04:00:00 18.9 7 Noroeste 10 Noroeste 0 -- -- 59
2019-08-03 03:00:00 19.9 3 Norte 10 Norte 0 -- -- 56
2019-08-03 02:00:00 20.8 7 Nordeste 21 Nordeste 0 -- -- 54
2019-08-03 01:00:00 21.6 17 Nordeste 27 Norte 0 -- -- 53
2019-08-03 00:00:00 21.7 8 Norte 15 Noroeste 0 -- -- 41
2019-08-02 23:00:00 22.4 9 Oeste 13 Oeste 0 -- -- 40
2019-08-02 22:00:00 25.7 4 Norte 12 Sudeste 0 -- -- 35
2019-08-02 21:00:00 30 9 Sudeste 17 Sudeste 0 -- -- 25
2019-08-02 20:00:00 31.8 5 Sur 21 Sudeste 0 -- -- 23
2019-08-02 19:00:00 32 4 Noroeste 19 Sudoeste 0 -- -- 24
2019-08-02 18:00:00 31.5 9 Sudoeste 27 Sudoeste 0 -- -- 24
2019-08-02 17:00:00 30.6 6 Este 20 Sur 0 -- -- 25
2019-08-02 16:00:00 30.6 13 Sudoeste 24 Sudoeste 0 -- -- 21
2019-08-02 15:00:00 29.4 6 Sur 18 Sudeste 0 -- -- 28
2019-08-02 14:00:00 28.4 9 Sudeste 17 Sudeste 0 -- -- 33
2019-08-02 13:00:00 26.4 8 Sur 16 Sur 0 -- -- 36
2019-08-02 12:00:00 23.6 4 Norte 14 Nordeste 0 -- -- 44
2019-08-02 11:00:00 21.2 4 Norte 11 Nordeste 0 -- -- 57
2019-08-02 10:00:00 18.6 6 Nordeste 13 Este 0 -- -- 67
2019-08-02 09:00:00 15.2 3 Sur 9 Noroeste 0 -- -- 77
2019-08-02 08:00:00 12.4 8 Noroeste 12 Noroeste 0 -- -- 88
2019-08-02 07:00:00 11.3 8 Noroeste 11 Noroeste 0 -- -- 91
2019-08-02 06:00:00 12 3 Noroeste 6 Noroeste 0 -- -- 87
2019-08-02 05:00:00 13.2 4 Oeste 7 Noroeste 0 -- -- 83
2019-08-02 04:00:00 14.5 4 Noroeste 6 Noroeste 0 -- -- 80
2019-08-02 03:00:00 16.7 4 Sudeste 14 Este 0 -- -- 71
2019-08-02 02:00:00 18 2 Sudeste 21 Este 0 -- -- 67
2019-08-02 01:00:00 19.5 6 Este 22 Nordeste 0 -- -- 63
2019-08-02 00:00:00 21.5 15 Nordeste 31 Nordeste 0 -- -- 55
2019-08-01 23:00:00 22.4 6 Norte 17 Norte 0 -- -- 46
2019-08-01 22:00:00 24.1 9 Noroeste 15 Noroeste 0 -- -- 40
2019-08-01 21:00:00 27.9 4 Oeste 25 Oeste 0 -- -- 28
2019-08-01 20:00:00 29.4 12 Oeste 29 Sudoeste 0 -- -- 22
2019-08-01 19:00:00 30.6 12 Oeste 26 Oeste 0 -- -- 20
2019-08-01 18:00:00 30.7 17 Sudoeste 33 Sudoeste 0 -- -- 21
2019-08-01 17:00:00 30.5 12 Sudoeste 29 Sudoeste 0 -- -- 21
2019-08-01 16:00:00 30 10 Sur 27 Sur 0 -- -- 24
2019-08-01 15:00:00 28.4 5 Noroeste 19 Noroeste 0 -- -- 27
2019-08-01 14:00:00 27.7 12 Sudoeste 18 Oeste 0 -- -- 28
2019-08-01 13:00:00 25.7 7 Sudoeste 15 Sudoeste 0 -- -- 36
2019-08-01 12:00:00 23.7 5 Oeste 16 Este 0 -- -- 44
2019-08-01 11:00:00 21.4 4 Norte 12 Nordeste 0 -- -- 51
2019-08-01 10:00:00 18.7 3 Norte 6 Noroeste 0 -- -- 57
2019-08-01 09:00:00 14.5 5 Noroeste 9 Noroeste 0 -- -- 71
2019-08-01 08:00:00 11.3 0 Calma 4 Noroeste 0 -- -- 79
2019-08-01 07:00:00 11.7 2 Oeste 5 Oeste 0 -- -- 77
2019-08-01 06:00:00 12.8 3 Oeste 9 Noroeste 0 -- -- 74
2019-08-01 05:00:00 13.7 6 Oeste 10 Noroeste 0 -- -- 72
2019-08-01 04:00:00 15.7 5 Noroeste 9 Oeste 0 -- -- 65
2019-08-01 03:00:00 16.5 4 Noroeste 12 Norte 0 -- -- 61
2019-08-01 02:00:00 17.8 4 Norte 13 Norte 0 -- -- 57
2019-08-01 01:00:00 17.7 8 Norte 10 Norte 0 -- -- 51
2019-08-01 00:00:00 17.9 6 Nordeste 10 Norte 0 -- -- 45
2019-07-31 23:00:00 20.2 4 Noroeste 7 Noroeste 0 -- -- 38
2019-07-31 22:00:00 21.4 5 Noroeste 7 Noroeste 0 -- -- 39
2019-07-31 21:00:00 24.6 4 Nordeste 13 Este 0 -- -- 29
2019-07-31 20:00:00 25.8 7 Este 13 Nordeste 0 -- -- 26
2019-07-31 19:00:00 25.5 4 Norte 15 Este 0 -- -- 26
2019-07-31 18:00:00 25.6 8 Este 22 Este 0 -- -- 28
2019-07-31 17:00:00 24.9 9 Este 18 Este 0 -- -- 31
2019-07-31 16:00:00 24.6 6 Este 20 Este 0 -- -- 30
2019-07-31 15:00:00 23.8 14 Este 26 Este 0 -- -- 36
2019-07-31 14:00:00 23.5 11 Este 24 Este 0 -- -- 40
2019-07-31 13:00:00 21.7 9 Nordeste 21 Nordeste 0 -- -- 43
2019-07-31 12:00:00 19.5 13 Nordeste 23 Nordeste 0 -- -- 49
2019-07-31 11:00:00 17.5 12 Nordeste 22 Nordeste 0 -- -- 54
2019-07-31 10:00:00 15.5 14 Norte 22 Nordeste 0 -- -- 61
2019-07-31 09:00:00 13.1 14 Norte 25 Norte 0 -- -- 73
2019-07-31 08:00:00 10.9 3 Noroeste 10 Noroeste 0 -- -- 82
2019-07-31 07:00:00 10.7 4 Noroeste 15 Nordeste 0 -- -- 81
2019-07-31 06:00:00 11.8 7 Norte 12 Norte 0 -- -- 77
2019-07-31 05:00:00 12.8 7 Nordeste 22 Nordeste 0 -- -- 73
2019-07-31 04:00:00 13 8 Este 17 Este 0 -- -- 71
2019-07-31 03:00:00 13.6 6 Este 14 Este 0 -- -- 67
2019-07-31 02:00:00 14.6 8 Este 21 Nordeste 0 -- -- 62
2019-07-31 01:00:00 15.4 9 Nordeste 27 Nordeste 0 -- -- 53
2019-07-31 00:00:00 16.6 15 Nordeste 28 Nordeste 0 -- -- 46
2019-07-30 23:00:00 17.7 8 Norte 18 Norte 0 -- -- 41
2019-07-30 22:00:00 20 4 Este 16 Este 0 -- -- 38
2019-07-30 21:00:00 22.7 10 Este 19 Este 0 -- -- 32
2019-07-30 20:00:00 24.1 9 Este 24 Este 0 -- -- 29
2019-07-30 19:00:00 24.8 6 Este 19 Este 0 -- -- 25
2019-07-30 18:00:00 24.4 6 Norte 19 Nordeste 0 -- -- 27
2019-07-30 17:00:00 24 6 Sudeste 25 Oeste 0 -- -- 27
2019-07-30 16:00:00 23.1 5 Este 20 Nordeste 0 -- -- 30
2019-07-30 15:00:00 22.4 7 Norte 22 Noroeste 0 -- -- 32
2019-07-30 14:00:00 21.4 8 Sudeste 22 Sudeste 0 -- -- 33
2019-07-30 13:00:00 19.9 7 Este 26 Nordeste 0 -- -- 37
2019-07-30 12:00:00 18.3 12 Este 24 Este 0 -- -- 42
2019-07-30 11:00:00 17 12 Nordeste 22 Norte 0 -- -- 45
2019-07-30 10:00:00 15.4 17 Norte 31 Norte 0 -- -- 50
2019-07-30 09:00:00 13.1 10 Noroeste 18 Norte 0 -- -- 58
2019-07-30 08:00:00 10.2 7 Norte 18 Noroeste 0 -- -- 70
2019-07-30 07:00:00 9.3 10 Noroeste 19 Norte 0 -- -- 72
2019-07-30 06:00:00 11 15 Norte 30 Noroeste 0 -- -- 67
2019-07-30 05:00:00 10.6 7 Noroeste 15 Norte 0 -- -- 67
2019-07-30 04:00:00 10.9 3 Nordeste 16 Noroeste 0 -- -- 66
2019-07-30 03:00:00 11.2 5 Norte 16 Noroeste 0 -- -- 68
2019-07-30 02:00:00 12.3 8 Noroeste 21 Noroeste 0 -- -- 68
2019-07-30 01:00:00 12.9 7 Noroeste 17 Noroeste 0 -- -- 67
2019-07-30 00:00:00 14 12 Noroeste 19 Noroeste 0 -- -- 59
2019-07-29 23:00:00 15.6 12 Noroeste 27 Noroeste 0 -- -- 51
2019-07-29 22:00:00 17.3 17 Noroeste 34 Noroeste 0 -- -- 46
2019-07-29 21:00:00 19.9 21 Noroeste 33 Noroeste 0 -- -- 35
2019-07-29 20:00:00 22.5 19 Oeste 35 Oeste 0 -- -- 34
2019-07-29 19:00:00 23.7 21 Sudoeste 34 Oeste 0 -- -- 31
2019-07-29 18:00:00 24.4 19 Oeste 37 Oeste 0 -- -- 29
2019-07-29 17:00:00 24.6 23 Oeste 39 Sudoeste 0 -- -- 29
2019-07-29 16:00:00 24.8 21 Oeste 38 Oeste 0 -- -- 28
2019-07-29 15:00:00 25 28 Sudoeste 50 Sudoeste 0 -- -- 32
2019-07-29 14:00:00 23.8 19 Oeste 34 Sudoeste 0 -- -- 38
2019-07-29 13:00:00 23.2 15 Sudoeste 32 Sudoeste 0 -- -- 41
2019-07-29 12:00:00 22 14 Oeste 27 Sudoeste 0 -- -- 48
2019-07-29 11:00:00 20.4 18 Sudoeste 28 Oeste 0 -- -- 55
2019-07-29 10:00:00 18.2 15 Sudoeste 26 Sudoeste 0 -- -- 60
2019-07-29 09:00:00 14.3 2 Sur 5 Noroeste 0 -- -- 69
2019-07-29 08:00:00 9.8 2 Norte 8 Sur 0 -- -- 84
2019-07-29 07:00:00 8.7 0 Calma 7 Noroeste 0 -- -- 85
2019-07-29 06:00:00 9.2 2 Sudeste 5 Nordeste 0 -- -- 81
2019-07-29 05:00:00 10.1 2 Este 5 Sudoeste 0 -- -- 76
2019-07-29 04:00:00 11.1 0 Calma 6 Nordeste 0 -- -- 72
2019-07-29 03:00:00 13 2 Sudoeste 6 Nordeste 0 -- -- 68
2019-07-29 02:00:00 14 4 Este 11 Sudoeste 0 -- -- 63
2019-07-29 01:00:00 16.8 9 Sudoeste 12 Sudoeste 0 -- -- 54
2019-07-29 00:00:00 18.1 0 Calma 4 Sudoeste 0 -- -- 45
2019-07-28 23:00:00 19.7 0 Calma 9 Oeste 0 -- -- 38
2019-07-28 22:00:00 22.7 6 Oeste 25 Sudoeste 0 -- -- 31
2019-07-28 21:00:00 25.7 14 Sudoeste 26 Oeste 0 -- -- 29
2019-07-28 20:00:00 27 16 Sudoeste 30 Sudoeste 0 -- -- 23
2019-07-28 19:00:00 27.6 14 Sudoeste 28 Sudoeste 0 -- -- 24
2019-07-28 18:00:00 27.7 14 Sudoeste 32 Sudoeste 0 -- -- 24
2019-07-28 17:00:00 26.5 14 Sur 33 Sudoeste 0 -- -- 26
2019-07-28 16:00:00 25.5 10 Sur 23 Sur 0 -- -- 34
2019-07-28 15:00:00 23.7 5 Oeste 20 Sur 0 -- -- 39
2019-07-28 14:00:00 21.8 6 Sur 21 Sudoeste 0 -- -- 44
2019-07-28 13:00:00 20 8 Sudoeste 20 Oeste 0 -- -- 49
2019-07-28 12:00:00 19 6 Este 18 Sudeste 0 -- -- 53
2019-07-28 11:00:00 17 7 Este 13 Este 0 -- -- 62
2019-07-28 10:00:00 14.9 4 Sur 8 Sur 0 -- -- 70
2019-07-28 09:00:00 11.8 0 Calma 3 Noroeste 0 -- -- 81
2019-07-28 08:00:00 9.3 0 Calma 6 Noroeste 0 -- -- 89
2019-07-28 07:00:00 8.4 3 Noroeste 9 Noroeste 0 -- -- 89
2019-07-28 06:00:00 8.4 5 Noroeste 9 Noroeste 0 -- -- 90
2019-07-28 05:00:00 9.7 2 Noroeste 7 Noroeste 0 -- -- 85
2019-07-28 04:00:00 10.6 3 Oeste 7 Noroeste 0 -- -- 83
2019-07-28 03:00:00 12.1 3 Nordeste 8 Este 0 -- -- 76
2019-07-28 02:00:00 13.2 5 Sudeste 12 Nordeste 0 -- -- 71
2019-07-28 01:00:00 14.2 5 Nordeste 13 Nordeste 0 -- -- 68
2019-07-28 00:00:00 15.1 8 Nordeste 16 Este 0 -- -- 65
2019-07-27 23:00:00 17 7 Nordeste 26 Norte 0 -- -- 54
2019-07-26 12:00:00 -- -- -- -- -- -- -- -- --
2019-07-26 11:00:00 20.1 11 Noroeste 24 Oeste 0 -- -- 40
2019-07-26 10:00:00 18.2 9 Noroeste 22 Oeste 0 -- -- 47
2019-07-26 09:00:00 15.4 8 Noroeste 13 Noroeste 0 -- -- 60
2019-07-26 08:00:00 13.5 0 Calma 10 Oeste 0 -- -- 73
2019-07-26 07:00:00 13.7 3 Norte 7 Noroeste 0 -- -- 70
2019-07-26 06:00:00 15.2 2 Norte 10 Oeste 0 -- -- 72
2019-07-26 05:00:00 16.4 3 Noroeste 12 Norte 0 -- -- 72
2019-07-26 04:00:00 17.3 8 Nordeste 13 Norte 0 -- -- 72
2019-07-26 03:00:00 17.5 3 Nordeste 10 Norte 0 -- -- 75
2019-07-26 02:00:00 18.4 4 Norte 9 Norte 0 -- -- 75
2019-07-26 01:00:00 19.4 5 Norte 18 Oeste 0 -- -- 70
2019-07-26 00:00:00 20.3 10 Sudoeste 15 Sudoeste 0 -- -- 66
2019-07-25 23:00:00 21.2 10 Sudoeste 15 Sudoeste 0 -- -- 62
2019-07-25 22:00:00 22.4 9 Oeste 17 Oeste 0 -- -- 57
2019-07-25 21:00:00 23.8 8 Oeste 26 Oeste 0 -- -- 48
2019-07-25 20:00:00 24.5 17 Oeste 33 Oeste 0 -- -- 47
2019-07-25 19:00:00 26.3 10 Oeste 32 Oeste 0 -- -- 40
2019-07-25 18:00:00 27.5 22 Oeste 40 Sudoeste 0 -- -- 39
2019-07-25 17:00:00 29.6 23 Sudoeste 39 Sudoeste 0 -- -- 34
2019-07-25 16:00:00 29.7 22 Sudoeste 37 Oeste 0 -- -- 35
2019-07-25 15:00:00 29.6 24 Sudoeste 40 Sudoeste 0 -- -- 34
2019-07-25 14:00:00 29.4 20 Sudoeste 39 Sudoeste 0 -- -- 32
2019-07-25 13:00:00 28.3 18 Sudoeste 31 Sudoeste 0 -- -- 32
2019-07-25 12:00:00 26.3 9 Sudoeste 22 Sudoeste 0 -- -- 42
2019-07-25 11:00:00 24.5 12 Sudoeste 21 Sudoeste 0 -- -- 46
2019-07-25 10:00:00 21.7 7 Sudoeste 14 Sudoeste 0 -- -- 52
2019-07-25 09:00:00 18 2 Sudeste 5 Sudoeste 0 -- -- 69
2019-07-25 08:00:00 14 0 Calma 4 Oeste 0 -- -- 84
2019-07-25 07:00:00 14.1 3 Sudeste 8 Sudeste 0 -- -- 78
2019-07-25 06:00:00 15.3 3 Sudeste 9 Oeste 0 -- -- 77
2019-07-25 05:00:00 15.9 3 Oeste 6 Oeste 0 -- -- 73
2019-07-25 04:00:00 16.6 0 Calma 6 Este 0 -- -- 75
2019-07-25 03:00:00 17.7 0 Calma 8 Sur 0 -- -- 74
2019-07-25 02:00:00 19.3 0 Calma 6 Sudoeste 0 -- -- 60
2019-07-25 01:00:00 21.1 4 Sudoeste 5 Sudoeste 0 -- -- 57
2019-07-25 00:00:00 23.3 2 Sudoeste 17 Oeste 0 -- -- 50
2019-07-24 23:00:00 25.1 9 Oeste 20 Oeste 0 -- -- 46
2019-07-24 22:00:00 27.6 13 Oeste 25 Sudoeste 0 -- -- 40
2019-07-24 21:00:00 30.9 14 Sudoeste 26 Sudoeste 0 -- -- 28
2019-07-24 20:00:00 32.4 19 Sudoeste 33 Sudoeste 0 -- -- 24
2019-07-24 19:00:00 32.8 18 Sudoeste 33 Sudoeste 0 -- -- 28
2019-07-24 18:00:00 32.9 17 Sudoeste 37 Sudoeste 0 -- -- 26
2019-07-24 17:00:00 33 20 Sudoeste 40 Sur 0 -- -- 25
2019-07-24 16:00:00 32.6 24 Sudoeste 39 Sudoeste 0 -- -- 29
2019-07-24 15:00:00 31.6 17 Sur 28 Sur 0 -- -- 31
2019-07-24 14:00:00 29.6 6 Sur 26 Sudoeste 0 -- -- 43
2019-07-24 13:00:00 27.8 9 Sudeste 23 Este 0 -- -- 47
2019-07-24 12:00:00 25.5 7 Sudeste 13 Este 0 -- -- 55
2019-07-24 11:00:00 23.9 4 Este 12 Este 0 -- -- 60
2019-07-24 10:00:00 21.8 9 Nordeste 15 Nordeste 0 -- -- 66
2019-07-24 09:00:00 19.7 0 Calma 9 Noroeste 0 -- -- 78
2019-07-24 08:00:00 16.4 5 Noroeste 8 Noroeste 0 -- -- 91
2019-07-24 07:00:00 15.9 5 Oeste 8 Oeste 0 -- -- 91
2019-07-24 06:00:00 15.9 3 Noroeste 8 Oeste 0 -- -- 91
2019-07-24 05:00:00 16.7 5 Sudoeste 9 Sudoeste 0 -- -- 90
2019-07-24 04:00:00 17.4 2 Este 13 Noroeste 0 -- -- 87
2019-07-24 03:00:00 18.3 9 Oeste 20 Noroeste 0 -- -- 83
2019-07-24 02:00:00 18.7 14 Noroeste 21 Noroeste 0 -- -- 84
2019-07-24 01:00:00 18.8 10 Sudeste 32 Este 0 -- -- 84
2019-07-24 00:00:00 19 4 Sudoeste 8 Sur 0 -- -- 86
2019-07-23 23:00:00 20 0 Calma 9 Oeste 0 -- -- 78
2019-07-23 22:00:00 20.5 6 Nordeste 16 Noroeste 0.2 -- -- 76
2019-07-23 21:00:00 20.4 14 Noroeste 26 Norte 0 -- -- 75
2019-07-23 20:00:00 19.9 11 Sudoeste 55 Sudoeste 6.2 -- -- 76
2019-07-23 19:00:00 22.1 26 Oeste 68 Sudeste 3 -- -- 67
2019-07-23 18:00:00 30.3 23 Sudeste 50 Sudeste 0 -- -- 39
2019-07-23 17:00:00 33.6 17 Sur 30 Sur 0 -- -- 29
2019-07-23 16:00:00 32.9 13 Sur 23 Sudeste 0 -- -- 31
2019-07-23 15:00:00 30.6 10 Este 24 Sudeste 0 -- -- 38
2019-07-23 14:00:00 29.3 8 Sudeste 27 Este 0 -- -- 42
2019-07-23 13:00:00 27.2 8 Este 17 Sudeste 0 -- -- 47
2019-07-23 12:00:00 24.7 6 Norte 18 Noroeste 0 -- -- 54
2019-07-23 11:00:00 22.5 13 Noroeste 18 Noroeste 0 -- -- 66
2019-07-23 10:00:00 22.9 8 Este 20 Este 0 -- -- 58
2019-07-23 09:00:00 19.5 6 Nordeste 10 Nordeste 0 -- -- 75
2019-07-23 08:00:00 16.8 3 Este 6 Este 0 -- -- 85
2019-07-23 07:00:00 16.5 4 Norte 11 Oeste 0 -- -- 86
2019-07-23 06:00:00 16.4 6 Noroeste 10 Noroeste 0 -- -- 86
2019-07-23 05:00:00 18.1 2 Sudeste 5 Este 0 -- -- 77
2019-07-23 04:00:00 18.9 5 Sudeste 20 Noroeste 0 -- -- 71
2019-07-23 03:00:00 19.1 13 Noroeste 18 Noroeste 0 -- -- 70
2019-07-23 02:00:00 20.7 4 Sudoeste 19 Sur 0 -- -- 65
2019-07-23 01:00:00 22.7 13 Este 33 Este 0 -- -- 52
2019-07-23 00:00:00 21.3 8 Nordeste 34 Noroeste 0 -- -- 65
2019-07-22 23:00:00 21.6 19 Noroeste 32 Oeste 0.2 -- -- 62
2019-07-22 22:00:00 22.6 16 Nordeste 48 Sudeste 1.2 -- -- 58
2019-07-22 21:00:00 21.6 16 Sudeste 34 Sudeste 0.6 -- -- 66
2019-07-22 20:00:00 24 26 Sur 68 Sur 0.4 -- -- 54
2019-07-22 19:00:00 34.9 5 Noroeste 19 Oeste 0 -- -- 26
2019-07-22 18:00:00 35.9 8 Sur 16 Sudoeste 0 -- -- 25
2019-07-22 17:00:00 35.3 9 Sudeste 22 Sudoeste 0 -- -- 25
2019-07-22 16:00:00 34.9 12 Sur 22 Sur 0 -- -- 24
2019-07-22 15:00:00 32.7 6 Sudoeste 17 Sudeste 0 -- -- 33
2019-07-22 14:00:00 30.7 7 Nordeste 21 Este 0 -- -- 38
2019-07-22 13:00:00 28.9 10 Este 18 Este 0 -- -- 42
2019-07-22 12:00:00 26.9 9 Nordeste 18 Nordeste 0 -- -- 48
2019-07-22 11:00:00 25 12 Nordeste 19 Nordeste 0 -- -- 54
2019-07-22 10:00:00 23 11 Nordeste 17 Nordeste 0 -- -- 61
2019-07-22 09:00:00 20.3 10 Norte 14 Norte 0 -- -- 69
2019-07-22 08:00:00 17.8 3 Norte 9 Norte 0 -- -- 77
2019-07-22 07:00:00 17.4 6 Norte 10 Norte 0 -- -- 78
2019-07-22 06:00:00 18 3 Noroeste 6 Noroeste 0 -- -- 77
2019-07-22 05:00:00 18.7 4 Nordeste 7 Norte 0 -- -- 74
2019-07-22 04:00:00 19.2 4 Norte 8 Norte 0 -- -- 72
2019-07-22 03:00:00 19.6 6 Norte 11 Norte 0 -- -- 70
2019-07-22 02:00:00 20.5 4 Norte 8 Noroeste 0 -- -- 62
2019-07-22 01:00:00 23.3 3 Norte 23 Este 0 -- -- 52
2019-07-22 00:00:00 23.6 2 Nordeste 9 Noroeste 0 -- -- 50
2019-07-21 23:00:00 25.5 5 Noroeste 15 Noroeste 0 -- -- 44
2019-07-21 22:00:00 27.1 10 Noroeste 15 Noroeste 0 -- -- 37
2019-07-21 21:00:00 32.2 9 Oeste 15 Sur 0 -- -- 24
2019-07-21 20:00:00 33.5 7 Sur 18 Oeste 0 -- -- 24
2019-07-21 19:00:00 33.3 5 Oeste 18 Sudoeste 0 -- -- 27
2019-07-21 18:00:00 33.2 5 Sur 18 Oeste 0 -- -- 28
2019-07-21 17:00:00 32.4 8 Sudoeste 18 Sudoeste 0 -- -- 29
2019-07-21 16:00:00 31.3 9 Sudoeste 23 Sudeste 0 -- -- 30
2019-07-21 15:00:00 30.2 9 Sudeste 22 Este 0 -- -- 36
2019-07-21 14:00:00 28.1 4 Este 18 Este 0 -- -- 41
2019-07-21 13:00:00 26.1 5 Norte 19 Nordeste 0 -- -- 47
2019-07-21 12:00:00 23.8 8 Norte 18 Norte 0 -- -- 54
2019-07-21 11:00:00 21.9 8 Nordeste 17 Norte 0 -- -- 60
2019-07-21 10:00:00 20.1 12 Nordeste 19 Norte 0 -- -- 67
2019-07-21 09:00:00 17.6 4 Noroeste 9 Noroeste 0 -- -- 78
2019-07-21 08:00:00 13.7 6 Noroeste 9 Noroeste 0 -- -- 91
2019-07-21 07:00:00 12.8 6 Noroeste 9 Noroeste 0 -- -- 87
2019-07-21 06:00:00 14.1 0 Calma 7 Noroeste 0 -- -- 83
2019-07-21 05:00:00 15.1 4 Noroeste 7 Oeste 0 -- -- 81
2019-07-21 04:00:00 17.3 3 Noroeste 6 Norte 0 -- -- 76
2019-07-21 03:00:00 18.5 5 Nordeste 19 Este 0 -- -- 72
2019-07-21 02:00:00 19.7 10 Nordeste 24 Norte 0 -- -- 63
2019-07-21 01:00:00 20.2 16 Norte 26 Norte 0 -- -- 54
2019-07-21 00:00:00 21 8 Norte 10 Norte 0 -- -- 54